sensor_id;sensor_type;location;lat;lon;timestamp;pressure;altitude;pressure_sealevel;temperature;humidity
56894;BME280;43392;50.078;13.704;2022-09-09T00:02:20;96740.16;;;15.52;83.90
56894;BME280;43392;50.078;13.704;2022-09-09T00:04:58;96753.34;;;15.53;83.88
56894;BME280;43392;50.078;13.704;2022-09-09T00:07:37;96747.94;;;15.53;83.99
56894;BME280;43392;50.078;13.704;2022-09-09T00:10:16;96753.34;;;15.53;83.54
56894;BME280;43392;50.078;13.704;2022-09-09T00:12:52;96753.97;;;15.50;83.68
56894;BME280;43392;50.078;13.704;2022-09-09T00:15:24;96750.28;;;15.46;84.04
56894;BME280;43392;50.078;13.704;2022-09-09T00:17:53;96742.91;;;15.38;83.52
56894;BME280;43392;50.078;13.704;2022-09-09T00:20:28;96746.88;;;15.32;84.13
56894;BME280;43392;50.078;13.704;2022-09-09T00:23:00;96746.19;;;15.26;84.54
56894;BME280;43392;50.078;13.704;2022-09-09T00:25:34;96740.63;;;15.23;84.49
56894;BME280;43392;50.078;13.704;2022-09-09T00:28:13;96746.97;;;15.18;84.72
56894;BME280;43392;50.078;13.704;2022-09-09T00:30:43;96744.88;;;15.15;84.73
56894;BME280;43392;50.078;13.704;2022-09-09T00:33:14;96751.22;;;15.11;85.00
56894;BME280;43392;50.078;13.704;2022-09-09T00:35:45;96750.22;;;15.07;85.12
56894;BME280;43392;50.078;13.704;2022-09-09T00:38:14;96748.91;;;15.04;85.36
56894;BME280;43392;50.078;13.704;2022-09-09T00:40:49;96741.13;;;15.03;85.46
56894;BME280;43392;50.078;13.704;2022-09-09T00:43:26;96738.09;;;14.96;85.62
56894;BME280;43392;50.078;13.704;2022-09-09T00:49:04;96749.38;;;14.98;85.58
56894;BME280;43392;50.078;13.704;2022-09-09T00:51:43;96744.28;;;14.96;85.67
56894;BME280;43392;50.078;13.704;2022-09-09T00:54:23;96748.06;;;14.95;85.57
56894;BME280;43392;50.078;13.704;2022-09-09T00:56:53;96747.91;;;14.92;86.36
56894;BME280;43392;50.078;13.704;2022-09-09T00:59:31;96743.94;;;14.89;85.90
56894;BME280;43392;50.078;13.704;2022-09-09T01:02:00;96751.50;;;14.87;86.34
56894;BME280;43392;50.078;13.704;2022-09-09T01:04:32;96749.94;;;14.86;86.20
56894;BME280;43392;50.078;13.704;2022-09-09T01:07:06;96742.75;;;14.82;86.52
56894;BME280;43392;50.078;13.704;2022-09-09T01:09:45;96744.16;;;14.79;86.29
56894;BME280;43392;50.078;13.704;2022-09-09T01:12:24;96744.16;;;14.79;87.07
56894;BME280;43392;50.078;13.704;2022-09-09T01:14:58;96741.28;;;14.76;87.05
56894;BME280;43392;50.078;13.704;2022-09-09T01:17:31;96739.38;;;14.76;86.78
56894;BME280;43392;50.078;13.704;2022-09-09T01:20:04;96731.59;;;14.75;87.03
56894;BME280;43392;50.078;13.704;2022-09-09T01:22:40;96740.19;;;14.77;87.27
56894;BME280;43392;50.078;13.704;2022-09-09T01:26:08;96738.88;;;14.74;87.58
56894;BME280;43392;50.078;13.704;2022-09-09T01:28:37;96741.88;;;14.73;87.48
56894;BME280;43392;50.078;13.704;2022-09-09T01:31:06;96734.59;;;14.73;87.74
56894;BME280;43392;50.078;13.704;2022-09-09T01:33:34;96736.47;;;14.73;87.44
56894;BME280;43392;50.078;13.704;2022-09-09T01:36:04;96736.19;;;14.74;87.74
56894;BME280;43392;50.078;13.704;2022-09-09T01:38:34;96725.69;;;14.73;88.01
56894;BME280;43392;50.078;13.704;2022-09-09T01:41:02;96725.41;;;14.74;88.06
56894;BME280;43392;50.078;13.704;2022-09-09T01:43:30;96727.28;;;14.74;88.19
56894;BME280;43392;50.078;13.704;2022-09-09T01:45:59;96725.41;;;14.74;87.76
56894;BME280;43392;50.078;13.704;2022-09-09T01:48:27;96726.19;;;14.75;87.86
56894;BME280;43392;50.078;13.704;2022-09-09T01:50:54;96726.69;;;14.77;87.89
56894;BME280;43392;50.078;13.704;2022-09-09T01:53:23;96735.59;;;14.77;88.26
56894;BME280;43392;50.078;13.704;2022-09-09T01:55:58;96725.06;;;14.76;88.24
56894;BME280;43392;50.078;13.704;2022-09-09T01:58:33;96715.09;;;14.76;88.05
56894;BME280;43392;50.078;13.704;2022-09-09T02:01:08;96716.97;;;14.76;88.65
56894;BME280;43392;50.078;13.704;2022-09-09T02:03:40;96725.88;;;14.76;88.26
56894;BME280;43392;50.078;13.704;2022-09-09T02:06:17;96733.16;;;14.76;88.69
56894;BME280;43392;50.078;13.704;2022-09-09T02:08:49;96724.09;;;14.72;88.69
56894;BME280;43392;50.078;13.704;2022-09-09T02:11:17;96723.63;;;14.70;88.83
56894;BME280;43392;50.078;13.704;2022-09-09T02:13:47;96719.63;;;14.67;88.65
56894;BME280;43392;50.078;13.704;2022-09-09T02:16:19;96728.81;;;14.66;88.82
56894;BME280;43392;50.078;13.704;2022-09-09T02:18:52;96724.53;;;14.65;88.72
56894;BME280;43392;50.078;13.704;2022-09-09T02:21:22;96726.25;;;14.61;88.85
56894;BME280;43392;50.078;13.704;2022-09-09T02:23:50;96728.44;;;14.59;89.26
56894;BME280;43392;50.078;13.704;2022-09-09T02:26:19;96729.25;;;14.59;89.24
56894;BME280;43392;50.078;13.704;2022-09-09T02:28:50;96734.16;;;14.57;89.01
56894;BME280;43392;50.078;13.704;2022-09-09T02:31:20;96730.66;;;14.57;89.31
56894;BME280;43392;50.078;13.704;2022-09-09T02:33:51;96729.69;;;14.53;89.17
56894;BME280;43392;50.078;13.704;2022-09-09T02:36:20;96741.69;;;14.47;89.14
56894;BME280;43392;50.078;13.704;2022-09-09T02:38:49;96734.50;;;14.42;89.10
56894;BME280;43392;50.078;13.704;2022-09-09T02:41:33;96740.22;;;14.41;89.63
56894;BME280;43392;50.078;13.704;2022-09-09T02:44:05;96738.94;;;14.38;89.06
56894;BME280;43392;50.078;13.704;2022-09-09T02:46:39;96741.44;;;14.35;89.17
56894;BME280;43392;50.078;13.704;2022-09-09T02:49:15;96737.53;;;14.27;89.44
56894;BME280;43392;50.078;13.704;2022-09-09T02:51:51;96744.63;;;14.23;89.60
56894;BME280;43392;50.078;13.704;2022-09-09T02:54:26;96739.34;;;14.18;89.41
56894;BME280;43392;50.078;13.704;2022-09-09T02:56:59;96739.34;;;14.18;89.90
56894;BME280;43392;50.078;13.704;2022-09-09T02:59:29;96748.53;;;14.17;89.81
56894;BME280;43392;50.078;13.704;2022-09-09T03:01:56;96740.44;;;14.17;90.14
56894;BME280;43392;50.078;13.704;2022-09-09T03:04:23;96741.06;;;14.14;90.16
56894;BME280;43392;50.078;13.704;2022-09-09T03:06:50;96741.34;;;14.13;90.03
56894;BME280;43392;50.078;13.704;2022-09-09T03:09:17;96744.84;;;14.13;90.40
56894;BME280;43392;50.078;13.704;2022-09-09T03:11:43;96746.94;;;14.16;89.96
56894;BME280;43392;50.078;13.704;2022-09-09T03:14:10;96748.84;;;14.16;90.16
56894;BME280;43392;50.078;13.704;2022-09-09T03:16:38;96754.84;;;14.13;90.59
56894;BME280;43392;50.078;13.704;2022-09-09T03:19:05;96752.94;;;14.13;90.92
56894;BME280;43392;50.078;13.704;2022-09-09T03:21:32;96750.72;;;14.15;90.54
56894;BME280;43392;50.078;13.704;2022-09-09T03:23:59;96758.72;;;14.20;90.66
56894;BME280;43392;50.078;13.704;2022-09-09T03:26:28;96748.41;;;14.22;90.37
56894;BME280;43392;50.078;13.704;2022-09-09T03:28:55;96743.94;;;14.18;90.76
56894;BME280;43392;50.078;13.704;2022-09-09T03:31:21;96742.84;;;14.19;90.97
56894;BME280;43392;50.078;13.704;2022-09-09T03:33:50;96749.34;;;14.18;90.96
56894;BME280;43392;50.078;13.704;2022-09-09T03:36:17;96747.75;;;14.17;91.28
56894;BME280;43392;50.078;13.704;2022-09-09T03:38:43;96749.34;;;14.18;91.31
56894;BME280;43392;50.078;13.704;2022-09-09T03:41:10;96743.94;;;14.18;91.17
56894;BME280;43392;50.078;13.704;2022-09-09T03:43:37;96750.13;;;14.18;91.38
56894;BME280;43392;50.078;13.704;2022-09-09T03:46:04;96744.75;;;14.18;91.28
56894;BME280;43392;50.078;13.704;2022-09-09T03:48:30;96739.34;;;14.18;91.06
56894;BME280;43392;50.078;13.704;2022-09-09T03:50:58;96735.56;;;14.19;91.32
56894;BME280;43392;50.078;13.704;2022-09-09T03:53:26;96744.63;;;14.23;90.93
56894;BME280;43392;50.078;13.704;2022-09-09T03:55:55;96737.84;;;14.26;91.35
56894;BME280;43392;50.078;13.704;2022-09-09T03:58:24;96744.31;;;14.25;91.09
56894;BME280;43392;50.078;13.704;2022-09-09T04:00:56;96736.22;;;14.25;90.88
56894;BME280;43392;50.078;13.704;2022-09-09T04:03:23;96741.81;;;14.28;90.84
56894;BME280;43392;50.078;13.704;2022-09-09T04:05:51;96739.94;;;14.29;90.84
56894;BME280;43392;50.078;13.704;2022-09-09T04:08:19;96736.94;;;14.30;90.56
56894;BME280;43392;50.078;13.704;2022-09-09T04:10:47;96737.22;;;14.29;90.83
56894;BME280;43392;50.078;13.704;2022-09-09T04:13:13;96741.81;;;14.28;90.82
56894;BME280;43392;50.078;13.704;2022-09-09T04:15:43;96733.53;;;14.25;90.48
56894;BME280;43392;50.078;13.704;2022-09-09T04:18:10;96737.63;;;14.22;90.84
56894;BME280;43392;50.078;13.704;2022-09-09T04:20:37;96732.88;;;14.19;91.07
56894;BME280;43392;50.078;13.704;2022-09-09T04:23:04;96731.25;;;14.18;91.29
56894;BME280;43392;50.078;13.704;2022-09-09T04:25:32;96728.88;;;14.17;90.87
56894;BME280;43392;50.078;13.704;2022-09-09T04:27:59;96729.16;;;14.15;91.64
56894;BME280;43392;50.078;13.704;2022-09-09T04:30:25;96731.84;;;14.15;91.48
56894;BME280;43392;50.078;13.704;2022-09-09T04:32:52;96733.47;;;14.16;91.66
56894;BME280;43392;50.078;13.704;2022-09-09T04:35:19;96740.44;;;14.17;91.25
56894;BME280;43392;50.078;13.704;2022-09-09T04:37:46;96741.72;;;14.20;91.62
56894;BME280;43392;50.078;13.704;2022-09-09T04:40:13;96738.25;;;14.19;91.34
56894;BME280;43392;50.078;13.704;2022-09-09T04:42:41;96738.75;;;14.21;91.46
56894;BME280;43392;50.078;13.704;2022-09-09T04:45:09;96737.75;;;14.17;91.39
56894;BME280;43392;50.078;13.704;2022-09-09T04:47:38;96746.34;;;14.19;91.23
56894;BME280;43392;50.078;13.704;2022-09-09T04:50:06;96747.75;;;14.17;91.13
56894;BME280;43392;50.078;13.704;2022-09-09T04:52:33;96740.75;;;14.16;91.30
56894;BME280;43392;50.078;13.704;2022-09-09T04:55:00;96731.38;;;14.13;91.43
56894;BME280;43392;50.078;13.704;2022-09-09T04:57:27;96740.53;;;14.12;91.48
56894;BME280;43392;50.078;13.704;2022-09-09T04:59:55;96744.66;;;14.10;91.19
56894;BME280;43392;50.078;13.704;2022-09-09T05:02:21;96743.88;;;14.09;91.72
56894;BME280;43392;50.078;13.704;2022-09-09T05:04:48;96745.16;;;14.12;91.77
56894;BME280;43392;50.078;13.704;2022-09-09T05:07:15;96752.44;;;14.11;91.54
56894;BME280;43392;50.078;13.704;2022-09-09T05:09:42;96754.34;;;14.11;91.24
56894;BME280;43392;50.078;13.704;2022-09-09T05:12:09;96765.13;;;14.11;91.73
56894;BME280;43392;50.078;13.704;2022-09-09T05:14:36;96763.72;;;14.13;91.78
56894;BME280;43392;50.078;13.704;2022-09-09T05:17:04;96765.63;;;14.13;91.77
56894;BME280;43392;50.078;13.704;2022-09-09T05:19:31;96759.41;;;14.12;91.60
56894;BME280;43392;50.078;13.704;2022-09-09T05:21:57;96761.53;;;14.15;91.76
56894;BME280;43392;50.078;13.704;2022-09-09T05:24:24;96770.63;;;14.19;91.45
56894;BME280;43392;50.078;13.704;2022-09-09T05:26:50;96780.28;;;14.20;91.03
56894;BME280;43392;50.078;13.704;2022-09-09T05:29:17;96781.09;;;14.21;90.95
56894;BME280;43392;50.078;13.704;2022-09-09T05:31:44;96775.50;;;14.17;91.13
56894;BME280;43392;50.078;13.704;2022-09-09T05:34:13;96778.81;;;14.14;90.88
56894;BME280;43392;50.078;13.704;2022-09-09T05:36:40;96779.91;;;14.13;90.97
56894;BME280;43392;50.078;13.704;2022-09-09T05:39:06;96780.72;;;14.14;91.19
56894;BME280;43392;50.078;13.704;2022-09-09T05:41:33;96772.69;;;14.22;91.05
56894;BME280;43392;50.078;13.704;2022-09-09T05:44:01;96779.50;;;14.33;91.06
56894;BME280;43392;50.078;13.704;2022-09-09T05:46:28;96784.00;;;14.38;90.90
56894;BME280;43392;50.078;13.704;2022-09-09T05:48:55;96774.38;;;14.45;90.04
56894;BME280;43392;50.078;13.704;2022-09-09T05:51:26;96775.84;;;14.51;89.90
56894;BME280;43392;50.078;13.704;2022-09-09T05:53:55;96763.38;;;14.55;89.57
56894;BME280;43392;50.078;13.704;2022-09-09T05:56:24;96772.59;;;14.63;89.81
56894;BME280;43392;50.078;13.704;2022-09-09T05:58:52;96779.19;;;14.71;89.51
56894;BME280;43392;50.078;13.704;2022-09-09T06:01:21;96776.25;;;14.81;89.20
56894;BME280;43392;50.078;13.704;2022-09-09T06:03:49;96772.81;;;14.89;88.99
56894;BME280;43392;50.078;13.704;2022-09-09T06:06:18;96765.09;;;14.96;89.13
56894;BME280;43392;50.078;13.704;2022-09-09T06:08:48;96767.06;;;15.04;88.93
56894;BME280;43392;50.078;13.704;2022-09-09T06:11:17;96778.22;;;15.11;89.00
56894;BME280;43392;50.078;13.704;2022-09-09T06:13:44;96765.69;;;15.15;88.74
56894;BME280;43392;50.078;13.704;2022-09-09T06:16:14;96770.16;;;15.19;88.79
56894;BME280;43392;50.078;13.704;2022-09-09T06:18:41;96771.00;;;15.28;88.32
56894;BME280;43392;50.078;13.704;2022-09-09T06:21:11;96758.75;;;15.31;88.46
56894;BME280;43392;50.078;13.704;2022-09-09T06:23:40;96769.16;;;15.38;88.25
56894;BME280;43392;50.078;13.704;2022-09-09T06:26:11;96776.63;;;15.41;88.36
56894;BME280;43392;50.078;13.704;2022-09-09T06:28:38;96764.38;;;15.43;88.69
56894;BME280;43392;50.078;13.704;2022-09-09T06:31:07;96765.69;;;15.76;88.92
56894;BME280;43392;50.078;13.704;2022-09-09T06:33:35;96770.78;;;15.86;87.39
56894;BME280;43392;50.078;13.704;2022-09-09T06:36:05;96780.34;;;15.84;87.27
56894;BME280;43392;50.078;13.704;2022-09-09T06:38:32;96772.06;;;15.80;87.40
56894;BME280;43392;50.078;13.704;2022-09-09T06:40:59;96778.09;;;15.77;87.40
56894;BME280;43392;50.078;13.704;2022-09-09T06:43:29;96778.09;;;15.77;87.84
56894;BME280;43392;50.078;13.704;2022-09-09T06:45:58;96787.81;;;15.78;87.88
56894;BME280;43392;50.078;13.704;2022-09-09T06:48:25;96789.53;;;15.74;87.46
56894;BME280;43392;50.078;13.704;2022-09-09T06:51:00;96783.28;;;15.65;87.95
56894;BME280;43392;50.078;13.704;2022-09-09T06:53:27;96790.75;;;15.60;87.46
56894;BME280;43392;50.078;13.704;2022-09-09T06:55:53;96799.75;;;15.47;87.97
56894;BME280;43392;50.078;13.704;2022-09-09T06:58:21;96796.66;;;15.40;88.48
56894;BME280;43392;50.078;13.704;2022-09-09T07:00:49;96810.31;;;15.43;88.65
56894;BME280;43392;50.078;13.704;2022-09-09T07:03:16;96798.66;;;15.48;88.16
56894;BME280;43392;50.078;13.704;2022-09-09T07:05:43;96799.91;;;15.50;88.12
56894;BME280;43392;50.078;13.704;2022-09-09T07:08:10;96806.97;;;15.60;88.16
56894;BME280;43392;50.078;13.704;2022-09-09T07:10:37;96802.69;;;15.67;87.99
56894;BME280;43392;50.078;13.704;2022-09-09T07:13:03;96804.97;;;15.74;87.30
56894;BME280;43392;50.078;13.704;2022-09-09T07:15:31;96809.78;;;15.85;87.08
56894;BME280;43392;50.078;13.704;2022-09-09T07:18:02;96805.06;;;16.00;87.04
56894;BME280;43392;50.078;13.704;2022-09-09T07:20:28;96801.25;;;16.09;86.77
56894;BME280;43392;50.078;13.704;2022-09-09T07:22:55;96801.63;;;16.25;86.33
56894;BME280;43392;50.078;13.704;2022-09-09T07:25:22;96797.84;;;16.43;86.10
56894;BME280;43392;50.078;13.704;2022-09-09T07:27:49;96797.34;;;16.49;85.84
56894;BME280;43392;50.078;13.704;2022-09-09T07:30:16;96806.97;;;16.55;85.49
56894;BME280;43392;50.078;13.704;2022-09-09T07:32:44;96806.47;;;16.62;84.76
56894;BME280;43392;50.078;13.704;2022-09-09T07:35:12;96805.53;;;16.67;84.77
56894;BME280;43392;50.078;13.704;2022-09-09T07:37:39;96805.69;;;16.70;84.62
56894;BME280;43392;50.078;13.704;2022-09-09T07:40:07;96808.06;;;16.72;84.54
56894;BME280;43392;50.078;13.704;2022-09-09T07:42:33;96795.19;;;16.69;84.39
56894;BME280;43392;50.078;13.704;2022-09-09T07:45:00;96801.53;;;16.64;85.04
56894;BME280;43392;50.078;13.704;2022-09-09T07:47:27;96791.19;;;16.57;85.19
56894;BME280;43392;50.078;13.704;2022-09-09T07:49:53;96796.59;;;16.49;85.05
56894;BME280;43392;50.078;13.704;2022-09-09T07:52:22;96796.25;;;16.42;85.24
56894;BME280;43392;50.078;13.704;2022-09-09T07:54:49;96804.84;;;16.44;85.51
56894;BME280;43392;50.078;13.704;2022-09-09T07:57:15;96796.41;;;16.37;84.49
56894;BME280;43392;50.078;13.704;2022-09-09T07:59:42;96797.22;;;16.46;84.53
56894;BME280;43392;50.078;13.704;2022-09-09T08:02:08;96801.88;;;16.54;84.91
56894;BME280;43392;50.078;13.704;2022-09-09T08:04:36;96808.22;;;16.67;84.59
56894;BME280;43392;50.078;13.704;2022-09-09T08:07:03;96807.13;;;16.76;84.60
56894;BME280;43392;50.078;13.704;2022-09-09T08:09:31;96805.38;;;16.89;84.33
56894;BME280;43392;50.078;13.704;2022-09-09T08:11:59;96809.03;;;17.01;84.19
56894;BME280;43392;50.078;13.704;2022-09-09T08:14:26;96811.56;;;17.15;83.55
56894;BME280;43392;50.078;13.704;2022-09-09T08:16:53;96804.72;;;17.26;83.33
56894;BME280;43392;50.078;13.704;2022-09-09T08:19:20;96817.59;;;17.38;82.84
56894;BME280;43392;50.078;13.704;2022-09-09T08:21:46;96818.72;;;17.45;82.79
56894;BME280;43392;50.078;13.704;2022-09-09T08:24:14;96831.78;;;17.52;82.49
56894;BME280;43392;50.078;13.704;2022-09-09T08:26:45;96826.38;;;17.60;81.97
56894;BME280;43392;50.078;13.704;2022-09-09T08:29:13;96823.94;;;17.67;81.90
56894;BME280;43392;50.078;13.704;2022-09-09T08:31:41;96820.38;;;17.75;81.29
56894;BME280;43392;50.078;13.704;2022-09-09T08:34:09;96815.88;;;17.88;80.71
56894;BME280;43392;50.078;13.704;2022-09-09T08:36:38;96819.50;;;18.01;80.17
56894;BME280;43392;50.078;13.704;2022-09-09T08:39:06;96812.91;;;18.10;79.99
56894;BME280;43392;50.078;13.704;2022-09-09T08:41:46;96815.91;;;18.17;79.87
56894;BME280;43392;50.078;13.704;2022-09-09T08:44:23;96825.13;;;18.25;79.68
56894;BME280;43392;50.078;13.704;2022-09-09T08:46:58;96823.84;;;18.31;79.42
56894;BME280;43392;50.078;13.704;2022-09-09T08:49:40;96817.78;;;18.25;79.43
56894;BME280;43392;50.078;13.704;2022-09-09T08:52:16;96825.56;;;18.35;79.05
56894;BME280;43392;50.078;13.704;2022-09-09T08:54:44;96830.63;;;18.45;78.76
56894;BME280;43392;50.078;13.704;2022-09-09T08:57:19;96823.69;;;18.57;78.09
56894;BME280;43392;50.078;13.704;2022-09-09T08:59:46;96826.69;;;18.64;77.96
56894;BME280;43392;50.078;13.704;2022-09-09T09:02:17;96823.06;;;18.80;77.48
56894;BME280;43392;50.078;13.704;2022-09-09T09:04:56;96821.53;;;18.71;77.68
56894;BME280;43392;50.078;13.704;2022-09-09T09:07:32;96821.72;;;18.66;76.86
56894;BME280;43392;50.078;13.704;2022-09-09T09:10:05;96821.78;;;18.78;76.55
56894;BME280;43392;50.078;13.704;2022-09-09T09:12:40;96823.56;;;18.94;76.04
56894;BME280;43392;50.078;13.704;2022-09-09T09:15:11;96819.34;;;19.05;75.68
56894;BME280;43392;50.078;13.704;2022-09-09T09:17:41;96813.81;;;19.14;75.75
56894;BME280;43392;50.078;13.704;2022-09-09T09:20:12;96812.75;;;19.27;75.19
56894;BME280;43392;50.078;13.704;2022-09-09T09:22:46;96800.03;;;19.40;74.81
56894;BME280;43392;50.078;13.704;2022-09-09T09:25:17;96806.63;;;19.51;74.15
56894;BME280;43392;50.078;13.704;2022-09-09T09:27:51;96794.50;;;19.60;73.14
56894;BME280;43392;50.078;13.704;2022-09-09T09:30:22;96804.16;;;19.70;72.79
56894;BME280;43392;50.078;13.704;2022-09-09T09:32:54;96809.84;;;19.77;72.43
56894;BME280;43392;50.078;13.704;2022-09-09T09:35:22;96807.72;;;19.82;72.42
56894;BME280;43392;50.078;13.704;2022-09-09T09:37:49;96810.31;;;19.91;72.62
56894;BME280;43392;50.078;13.704;2022-09-09T09:40:18;96806.69;;;19.99;72.20
56894;BME280;43392;50.078;13.704;2022-09-09T09:42:54;96807.97;;;20.02;71.38
56894;BME280;43392;50.078;13.704;2022-09-09T09:45:33;96813.31;;;20.10;71.03
56894;BME280;43392;50.078;13.704;2022-09-09T09:48:02;96810.22;;;20.12;71.37
56894;BME280;43392;50.078;13.704;2022-09-09T09:50:29;96799.13;;;20.17;71.06
56894;BME280;43392;50.078;13.704;2022-09-09T09:52:58;96811.06;;;20.24;70.79
56894;BME280;43392;50.078;13.704;2022-09-09T09:55:25;96801.97;;;20.32;69.99
56894;BME280;43392;50.078;13.704;2022-09-09T09:57:54;96814.09;;;20.35;70.32
56894;BME280;43392;50.078;13.704;2022-09-09T10:00:26;96804.38;;;20.34;69.98
56894;BME280;43392;50.078;13.704;2022-09-09T10:02:53;96798.69;;;20.39;69.85
56894;BME280;43392;50.078;13.704;2022-09-09T10:05:21;96791.19;;;20.48;69.21
56894;BME280;43392;50.078;13.704;2022-09-09T10:08:01;96802.75;;;20.45;68.36
56894;BME280;43392;50.078;13.704;2022-09-09T10:10:37;96805.94;;;20.47;67.77
56894;BME280;43392;50.078;13.704;2022-09-09T10:13:11;96792.53;;;20.54;67.42
56894;BME280;43392;50.078;13.704;2022-09-09T10:15:48;96791.97;;;20.61;67.45
56894;BME280;43392;50.078;13.704;2022-09-09T10:18:30;96799.06;;;20.77;66.50
56894;BME280;43392;50.078;13.704;2022-09-09T10:21:06;96796.59;;;20.72;67.32
56894;BME280;43392;50.078;13.704;2022-09-09T10:23:46;96793.03;;;20.84;65.26
56894;BME280;43392;50.078;13.704;2022-09-09T10:26:32;96786.47;;;21.12;63.43
56894;BME280;43392;50.078;13.704;2022-09-09T10:29:15;96781.03;;;21.12;61.06
56894;BME280;43392;50.078;13.704;2022-09-09T10:31:54;96778.09;;;21.05;61.90
56894;BME280;43392;50.078;13.704;2022-09-09T10:34:42;96780.56;;;20.83;59.04
56894;BME280;43392;50.078;13.704;2022-09-09T10:37:22;96781.13;;;20.76;60.71
56894;BME280;43392;50.078;13.704;2022-09-09T10:39:58;96775.94;;;20.99;61.07
56894;BME280;43392;50.078;13.704;2022-09-09T10:42:30;96769.44;;;21.15;60.63
56894;BME280;43392;50.078;13.704;2022-09-09T10:45:13;96772.34;;;21.23;59.08
56894;BME280;43392;50.078;13.704;2022-09-09T10:48:04;96778.41;;;21.16;59.44
56894;BME280;43392;50.078;13.704;2022-09-09T10:50:43;96782.19;;;20.99;59.87
56894;BME280;43392;50.078;13.704;2022-09-09T10:53:17;96780.63;;;20.86;60.21
56894;BME280;43392;50.078;13.704;2022-09-09T10:55:51;96781.34;;;20.71;61.29
56894;BME280;43392;50.078;13.704;2022-09-09T10:58:24;96786.03;;;20.71;61.56
56894;BME280;43392;50.078;13.704;2022-09-09T11:00:57;96772.28;;;20.67;60.80
56894;BME280;43392;50.078;13.704;2022-09-09T11:03:29;96779.47;;;20.60;61.42
56894;BME280;43392;50.078;13.704;2022-09-09T11:05:59;96781.50;;;20.63;61.06
56894;BME280;43392;50.078;13.704;2022-09-09T11:08:29;96787.53;;;20.68;60.78
56894;BME280;43392;50.078;13.704;2022-09-09T11:11:02;96790.94;;;20.65;61.09
56894;BME280;43392;50.078;13.704;2022-09-09T11:13:37;96800.34;;;20.68;60.23
56894;BME280;43392;50.078;13.704;2022-09-09T11:16:17;96796.78;;;20.79;59.23
56894;BME280;43392;50.078;13.704;2022-09-09T11:18:47;96790.38;;;20.99;60.36
56894;BME280;43392;50.078;13.704;2022-09-09T11:21:18;96792.88;;;21.04;60.33
56894;BME280;43392;50.078;13.704;2022-09-09T11:23:52;96801.84;;;20.93;61.26
56894;BME280;43392;50.078;13.704;2022-09-09T11:26:29;96791.09;;;20.84;60.79
56894;BME280;43392;50.078;13.704;2022-09-09T11:29:08;96782.97;;;20.72;61.37
56894;BME280;43392;50.078;13.704;2022-09-09T11:31:44;96783.56;;;20.54;60.47
56894;BME280;43392;50.078;13.704;2022-09-09T11:34:22;96790.84;;;20.37;60.08
56894;BME280;43392;50.078;13.704;2022-09-09T11:37:05;96791.06;;;20.32;59.79
56894;BME280;43392;50.078;13.704;2022-09-09T11:39:48;96792.78;;;20.37;60.68
56894;BME280;43392;50.078;13.704;2022-09-09T11:42:20;96794.25;;;20.46;61.23
56894;BME280;43392;50.078;13.704;2022-09-09T11:44:49;96789.34;;;20.52;60.95
56894;BME280;43392;50.078;13.704;2022-09-09T11:47:21;96781.59;;;20.66;61.05
56894;BME280;43392;50.078;13.704;2022-09-09T11:49:50;96775.63;;;20.88;60.67
56894;BME280;43392;50.078;13.704;2022-09-09T11:52:22;96774.25;;;21.06;60.47
56894;BME280;43392;50.078;13.704;2022-09-09T11:54:51;96768.31;;;21.17;61.00
56894;BME280;43392;50.078;13.704;2022-09-09T11:57:25;96777.91;;;21.26;59.89
56894;BME280;43392;50.078;13.704;2022-09-09T11:59:53;96776.25;;;21.22;58.50
56894;BME280;43392;50.078;13.704;2022-09-09T12:02:25;96771.97;;;20.96;58.51
56894;BME280;43392;50.078;13.704;2022-09-09T12:04:57;96789.19;;;20.85;58.99
56894;BME280;43392;50.078;13.704;2022-09-09T12:07:31;96787.78;;;20.91;60.43
56894;BME280;43392;50.078;13.704;2022-09-09T12:10:02;96783.44;;;21.14;60.26
56894;BME280;43392;50.078;13.704;2022-09-09T12:12:32;96777.63;;;21.03;59.21
56894;BME280;43392;50.078;13.704;2022-09-09T12:15:02;96791.25;;;21.03;59.20
56894;BME280;43392;50.078;13.704;2022-09-09T12:17:31;96787.09;;;21.06;59.60
56894;BME280;43392;50.078;13.704;2022-09-09T12:20:12;96781.28;;;21.07;58.70
56894;BME280;43392;50.078;13.704;2022-09-09T12:22:52;96780.59;;;21.10;59.63
56894;BME280;43392;50.078;13.704;2022-09-09T12:25:28;96781.03;;;21.12;59.83
56894;BME280;43392;50.078;13.704;2022-09-09T12:28:03;96775.94;;;21.11;60.17
56894;BME280;43392;50.078;13.704;2022-09-09T12:30:34;96772.41;;;21.10;59.99
56894;BME280;43392;50.078;13.704;2022-09-09T12:33:10;96772.84;;;21.12;60.44
56894;BME280;43392;50.078;13.704;2022-09-09T12:35:37;96777.19;;;21.13;61.02
56894;BME280;43392;50.078;13.704;2022-09-09T12:38:05;96773.66;;;21.13;61.26
56894;BME280;43392;50.078;13.704;2022-09-09T12:40:36;96766.16;;;21.10;61.74
56894;BME280;43392;50.078;13.704;2022-09-09T12:43:17;96757.22;;;21.09;61.45
56894;BME280;43392;50.078;13.704;2022-09-09T12:45:44;96756.84;;;21.11;61.38
56894;BME280;43392;50.078;13.704;2022-09-09T12:48:12;96742.09;;;21.12;61.64
56894;BME280;43392;50.078;13.704;2022-09-09T12:50:44;96741.03;;;21.17;61.57
56894;BME280;43392;50.078;13.704;2022-09-09T12:53:14;96734.91;;;21.07;61.59
56894;BME280;43392;50.078;13.704;2022-09-09T12:55:50;96736.75;;;21.03;61.97
56894;BME280;43392;50.078;13.704;2022-09-09T12:58:18;96737.41;;;21.12;62.16
56894;BME280;43392;50.078;13.704;2022-09-09T13:00:49;96730.50;;;21.31;61.06
56894;BME280;43392;50.078;13.704;2022-09-09T13:03:20;96733.31;;;21.34;61.12
56894;BME280;43392;50.078;13.704;2022-09-09T13:05:47;96728.56;;;21.31;61.54
56894;BME280;43392;50.078;13.704;2022-09-09T13:08:14;96732.00;;;21.28;61.41
56894;BME280;43392;50.078;13.704;2022-09-09T13:10:47;96718.69;;;21.27;61.43
56894;BME280;43392;50.078;13.704;2022-09-09T13:13:15;96711.75;;;21.29;61.58